Home > Products > Valid Products > MTR

000
SAUS41 KCAR 230116
MTR40B
METAR K40B 230116Z AUTO 00000KT 05/01 A3027 RMK AO1 SLP261
     T00550012 58014 P0000





000
SAUS41 KCAR 230100
MTRGNR
METAR KGNR 230056Z AUTO 05010G16KT 07/03 A3017 RMK AO1 SLP227
T00670028





000
SAUS41 KCAR 230100
MTRGNR
METAR KGNR 230056Z AUTO 05010G16KT 07/03 A3017 RMK AO1 SLP227
T00670028





000
SAUS41 KCAR 230016
MTR40B
METAR K40B 230016Z AUTO VRB02KT 06/01 A3029 RMK AO1 SLP268
     T00580014 10110 20058 58007 P0000 60000





000
SAUS41 KCAR 230016
MTR40B
METAR K40B 230016Z AUTO VRB02KT 06/01 A3029 RMK AO1 SLP268
     T00580014 10110 20058 58007 P0000 60000





000
SAUS41 KCAR 230000
MTRGNR
METAR KGNR 222356Z AUTO 03007KT 07/03 A3018 RMK AO1 SLP232 60006
T00670028 10100 20067 56010





000
SAUS41 KCAR 230000
MTRGNR
METAR KGNR 222356Z AUTO 03007KT 07/03 A3018 RMK AO1 SLP232 60006
T00670028 10100 20067 56010





000
SAUS41 KCAR 222316
MTR40B
METAR K40B 222316Z AUTO VRB02KT 06/02 A3030 RMK AO1 SLP272
     T00620017 58002





000
SAUS41 KCAR 222316
MTR40B
METAR K40B 222316Z AUTO VRB02KT 06/02 A3030 RMK AO1 SLP272
     T00620017 58002





000
SAUS41 KCAR 222300
MTRGNR
METAR KGNR 222256Z AUTO 03012G21KT 07/03 A3019 RMK AO1 SLP236
T00670028





000
SAUS41 KCAR 222300
MTRGNR
METAR KGNR 222256Z AUTO 03012G21KT 07/03 A3019 RMK AO1 SLP236
T00670028





000
SAUS41 KCAR 222216
MTR40B
METAR K40B 222216Z AUTO 00000KT 07/02 A3032 RMK AO1 SLP276
     T00670019 52005





000
SAUS41 KCAR 222216
MTR40B
METAR K40B 222216Z AUTO 00000KT 07/02 A3032 RMK AO1 SLP276
     T00670019 52005





000
SAUS41 KCAR 222200
MTRGNR
METAR KGNR 222156Z AUTO 04008KT 07/04 A3020 RMK AO1 SLP238 P0002
T00670039





000
SAUS41 KCAR 222116
MTR40B
METAR K40B 222116Z AUTO VRB04KT 07/02 A3031 RMK AO1 SLP277
     T00740017 53003





000
SAUS41 KCAR 222100
MTRGNR
METAR KGNR 222056Z AUTO 02008KT 07/04 A3021 RMK AO1 SLP242 P0004
60004 T00720039 55000





000
SAUS41 KCAR 222016
MTR40B
METAR K40B 222016Z AUTO 03007G14KT 350V060 09/00 A3031 RMK AO1
     SLP275 T00881002 56003





000
SAUS41 KCAR 222016
MTR40B
METAR K40B 222016Z AUTO 03007G14KT 350V060 09/00 A3031 RMK AO1
     SLP275 T00881002 56003





000
SAUS41 KCAR 222000
MTRGNR
METAR KGNR 221956Z AUTO 06011G19KT 08/03 A3021 RMK AO1 SLP241
T00830033





000
SAUS41 KCAR 221916
MTR40B
METAR K40B 221916Z AUTO 03008G16KT 350V060 10/00 A3031 RMK AO1
     SLP275 T00971003 56007





000
SAUS41 KCAR 221900
MTRGNR
METAR KGNR 221856Z AUTO 03009KT 09/03 A3020 RMK AO1 SLP237 T00940028





000
SAUS41 KCAR 221816
MTR40B
METAR K40B 221816Z AUTO 01007G15KT 310V080 11/01 A3030 RMK AO1
     SLP276 T01070007 10113 20031 56016





000
SAUS41 KCAR 221800
MTRGNR
METAR KGNR 221756Z AUTO 04008G16KT 10/03 A3021 RMK AO1 SLP240
T01000028 10106 20056 56008





000
SAUS41 KCAR 221800
MTRGNR
METAR KGNR 221756Z AUTO 04008G16KT 10/03 A3021 RMK AO1 SLP240
T01000028 10106 20056 56008





000
SAUS41 KCAR 221716
MTR40B
METAR K40B 221716Z AUTO 04008G13KT 320V100 11/01 A3031 RMK AO1
     SLP280 T01070014 58017





000
SAUS41 KCAR 221716
MTR40B
METAR K40B 221716Z AUTO 04008G13KT 320V100 11/01 A3031 RMK AO1
     SLP280 T01070014 58017





000
SAUS41 KCAR 221700
MTRGNR
METAR KGNR 221656Z AUTO 05010KT 09/02 A3021 RMK AO1 SLP240 T00940022





000
SAUS41 KCAR 221700
MTRGNR
METAR KGNR 221656Z AUTO 05010KT 09/02 A3021 RMK AO1 SLP240 T00940022





000
SAUS41 KCAR 221616
MTR40B
METAR K40B 221616Z AUTO VRB06G12KT 09/02 A3032 RMK AO1 SLP284
     T00900016 58014





000
SAUS41 KCAR 221600
MTRGNR
METAR KGNR 221556Z AUTO 05009KT 09/02 A3022 RMK AO1 SLP246 T00890017





000
SAUS41 KCAR 221600
MTRGNR
METAR KGNR 221556Z AUTO 05009KT 09/02 A3022 RMK AO1 SLP246 T00890017





000
SAUS41 KCAR 221516
MTR40B
METAR K40B 221516Z AUTO 02007G12KT 350V050 07/01 A3035 RMK AO1
     SLP295 T00710006 50002





000
SAUS41 KCAR 221500
MTRGNR
METAR KGNR 221456Z AUTO 04012G16KT 08/02 A3024 RMK AO1 SLP250
T00830017 50002





000
SAUS41 KCAR 221416
MTR40B
METAR K40B 221416Z AUTO VRB04G10KT 05/01 A3036 RMK AO1 SLP298
     T00470006 51012





000
SAUS41 KCAR 221357
MTRGNR
METAR KGNR 221356Z AUTO 04010G18KT 07/02 A3024 RMK AO1 SLP253
T00720022





000
SAUS41 KCAR 221316
MTR40B
METAR K40B 221316Z AUTO VRB04KT 04/00 A3036 RMK AO1 SLP300
     T00381003 51022





000
SAUS41 KCAR 221257
MTRGNR
METAR KGNR 221256Z AUTO 05011KT 06/02 A3023 RMK AO1 SLP250 T00610022





000
SAUS41 KCAR 221216
MTR40B
METAR K40B 221216Z AUTO VRB04KT 03/M01 A3035 RMK AO1 SLP294
     T00311005 10031 20023 52021 60000 70003





000
SAUS41 KCAR 221157
MTRGNR
METAR KGNR 221156Z AUTO 35003KT 06/03 A3023 RMK AO1 SLP249 70019
T00560028 10061 20044 51016





000
SAUS41 KCAR 221116
MTR40B
METAR K40B 221116Z AUTO VRB02KT 02/M01 A3032 RMK AO1 SLP286
     T00231006 52016





000
SAUS41 KCAR 221057
MTRGNR
METAR KGNR 221056Z AUTO 00000KT 05/03 A3022 RMK AO1 SLP246 T00500028





000
SAUS41 KCAR 221057
MTRGNR
METAR KGNR 221056Z AUTO 00000KT 05/03 A3022 RMK AO1 SLP246 T00500028





000
SAUS41 KCAR 221016
MTR40B
METAR K40B 221016Z AUTO VRB03KT 02/M01 A3030 RMK AO1 SLP277
     T00241005 52010





000
SAUS41 KCAR 221016
MTR40B
METAR K40B 221016Z AUTO VRB03KT 02/M01 A3030 RMK AO1 SLP277
     T00241005 52010





000
SAUS41 KCAR 220957
MTRGNR
METAR KGNR 220956Z AUTO 05006KT 05/02 A3020 RMK AO1 SLP238 T00500022





000
SAUS41 KCAR 220957
MTRGNR
METAR KGNR 220956Z AUTO 05006KT 05/02 A3020 RMK AO1 SLP238 T00500022





000
SAUS41 KCAR 220916
MTR40B
METAR K40B 220916Z AUTO VRB03KT 03/00 A3028 RMK AO1 SLP272
     T00271001 53004 60000





000
SAUS41 KCAR 220857
MTRGNR
METAR KGNR 220856Z AUTO 05007KT 05/02 A3018 RMK AO1 SLP233 T00500022
53002





000
SAUS41 KCAR 220816
MTR40B
METAR K40B 220816Z AUTO 00000KT 03/00 A3027 RMK AO1 SLP268
     T00260002 54001





000
SAUS41 KCAR 220757
MTRGNR
METAR KGNR 220756Z AUTO 06006KT 05/02 A3017 RMK AO1 SLP230 T00500022





000
SAUS41 KCAR 220716
MTR40B
METAR K40B 220716Z AUTO 00000KT 03/00 A3027 RMK AO1 SLP266
     T00260001 54001 P0000





000
SAUS41 KCAR 220657
MTRGNR
METAR KGNR 220656Z AUTO 05006KT 05/03 A3017 RMK AO1 SLP230 T00500028





000
SAUS41 KCAR 220616
MTR40B
METAR K40B 220616Z AUTO 00000KT 03/00 A3027 RMK AO1 SLP268
     T00260001 10027 20009 51006 60000





000
SAUS41 KCAR 220557
MTRGNR
METAR KGNR 220556Z AUTO 05009KT 04/02 A3017 RMK AO1 SLP230 60013
T00440022 10050 20039 51001





000
SAUS41 KCAR 220557
MTRGNR
METAR KGNR 220556Z AUTO 05009KT 04/02 A3017 RMK AO1 SLP230 60013
T00440022 10050 20039 51001





000
SAUS41 KCAR 220516
MTR40B
METAR K40B 220516Z AUTO 00000KT 03/00 A3027 RMK AO1 SLP267
     T00260003 400531034 51012





000
SAUS41 KCAR 220516
MTR40B
METAR K40B 220516Z AUTO 00000KT 03/00 A3027 RMK AO1 SLP267
     T00260003 400531034 51012





000
SAUS41 KCAR 220457
MTRGNR
METAR KGNR 220456Z AUTO 05007KT 04/03 A3017 RMK AO1 SLP231 P0001
T00440028 400670022





000
SAUS41 KCAR 220457
MTRGNR
METAR KGNR 220456Z AUTO 05007KT 04/03 A3017 RMK AO1 SLP231 P0001
T00440028 400670022





000
SAUS41 KCAR 220416
MTR40B
METAR K40B 220416Z AUTO 00000KT 03/02 A3027 RMK AO1 SLP267
     T00260019 52020 P0000





000
SAUS41 KCAR 220416
MTR40B
METAR K40B 220416Z AUTO 00000KT 03/02 A3027 RMK AO1 SLP267
     T00260019 52020 P0000





000
SAUS41 KCAR 220357
MTRGNR
METAR KGNR 220356Z AUTO 06009KT 04/03 A3018 RMK AO1 SLP232 P0005
T00440028





000
SAUS41 KCAR 220357
MTRGNR
METAR KGNR 220356Z AUTO 06009KT 04/03 A3018 RMK AO1 SLP232 P0005
T00440028





000
SAUS41 KCAR 220316
MTR40B
METAR K40B 220316Z AUTO 00000KT 02/02 A3025 RMK AO1 SLP260
     T00190016 52020





000
SAUS41 KCAR 220257
MTRGNR
METAR KGNR 220256Z AUTO 06007KT 04/03 A3017 RMK AO1 SLP230 P0003
60007 T00440028 53017





000
SAUS41 KCAR 220216
MTR40B
METAR K40B 220216Z AUTO 00000KT 02/02 A3023 RMK AO1 SLP254
     T00170015 52017





000
SAUS41 KCAR 220216
MTR40B
METAR K40B 220216Z AUTO 00000KT 02/02 A3023 RMK AO1 SLP254
     T00170015 52017





000
SAUS41 KCAR 220157
MTRGNR
METAR KGNR 220156Z AUTO 06006KT 04/03 A3015 RMK AO1 SLP224 P0002
T00440033





000
SAUS41 KCAR 220157
MTRGNR
METAR KGNR 220156Z AUTO 06006KT 04/03 A3015 RMK AO1 SLP224 P0002
T00440033





000
SAUS41 KCAR 220116
MTR40B
METAR K40B 220116Z AUTO 00000KT 01/01 A3021 RMK AO1 SLP246
     T00140012 52013





000
SAUS41 KCAR 220057
MTRGNR
METAR KGNR 220056Z AUTO 06004KT 05/03 A3013 RMK AO1 SLP218 P0002
T00500033





000
SAUS41 KCAR 220016
MTR40B
METAR K40B 220016Z AUTO 00000KT 02/01 A3019 RMK AO1 SLP241
     T00190015 10049 20020 52015





000
SAUS41 KCAR 212357
MTRGNR
METAR KGNR 212356Z AUTO 10004KT 05/04 A3012 RMK AO1 SLP213 P0002
60005 T00500039 10067 20050 52014





000
SAUS41 KCAR 212316
MTR40B
METAR K40B 212316Z AUTO 00000KT 03/02 A3018 RMK AO1 SLP237
     T00270022 52017





000
SAUS41 KCAR 212316
MTR40B
METAR K40B 212316Z AUTO 00000KT 03/02 A3018 RMK AO1 SLP237
     T00270022 52017





000
SAUS41 KCAR 212257
MTRGNR
METAR KGNR 212256Z AUTO 06003KT 05/04 A3010 RMK AO1 SLP208 P0002
T00500039





000
SAUS41 KCAR 212257
MTRGNR
METAR KGNR 212256Z AUTO 06003KT 05/04 A3010 RMK AO1 SLP208 P0002
T00500039





000
SAUS41 KCAR 212216
MTR40B
METAR K40B 212216Z AUTO 00000KT 03/02 A3017 RMK AO1 SLP234
     T00310022 53016





000
SAUS41 KCAR 212216
MTR40B
METAR K40B 212216Z AUTO 00000KT 03/02 A3017 RMK AO1 SLP234
     T00310022 53016





000
SAUS41 KCAR 212158
MTRGNR
METAR KGNR 212156Z AUTO 04003KT 06/03 A3009 RMK AO1 SLP204 P0001
T00560033





000
SAUS41 KCAR 212158
MTRGNR
METAR KGNR 212156Z AUTO 04003KT 06/03 A3009 RMK AO1 SLP204 P0001
T00560033





000
SAUS41 KCAR 212116
MTR40B
METAR K40B 212116Z AUTO 00000KT 04/01 A3015 RMK AO1 SLP227
     T00420012 53010





000
SAUS41 KCAR 212057
MTRGNR
METAR KGNR 212056Z AUTO 05003KT 07/03 A3008 RMK AO1 SLP198 T00670033
53007





000
SAUS41 KCAR 212016
MTR40B
METAR K40B 212016Z AUTO 00000KT 05/01 A3013 RMK AO1 SLP222
     T00460007 52007





000
SAUS41 KCAR 211957
MTRGNR
METAR KGNR 211956Z AUTO 00000KT 07/02 A3007 RMK AO1 SLP194 T00670022





000
SAUS41 KCAR 211957
MTRGNR
METAR KGNR 211956Z AUTO 00000KT 07/02 A3007 RMK AO1 SLP194 T00670022





000
SAUS41 KCAR 211916
MTR40B
METAR K40B 211916Z AUTO 00000KT 05/00 A3012 RMK AO1 SLP220
     T00460003 52009





000
SAUS41 KCAR 211857
MTRGNR
METAR KGNR 211856Z AUTO 00000KT 07/02 A3005 RMK AO1 SLP189 T00670017





000
SAUS41 KCAR 211816
MTR40B
METAR K40B 211816Z AUTO VRB03KT 05/00 A3012 RMK AO1 SLP219
     T00481003 10053 21015 52010 60002





000
SAUS41 KCAR 211757
MTRGNR
METAR KGNR 211756Z AUTO 10005KT 06/01 A3005 RMK AO1 SLP190 60001
T00610011 10061 20028 50001





000
SAUS41 KCAR 211716
MTR40B
METAR K40B 211716Z AUTO VRB02KT 05/M01 A3011 RMK AO1 SLP218
     T00501006 52010





000
SAUS41 KCAR 211658
MTRGNR
METAR KGNR 211656Z AUTO 10004KT 05/02 A3006 RMK AO1 SLP192 P0001
T00500017





000
SAUS41 KCAR 211658
MTRGNR
METAR KGNR 211656Z AUTO 10004KT 05/02 A3006 RMK AO1 SLP192 P0001
T00500017





000
SAUS41 KCAR 211616
MTR40B
METAR K40B 211616Z AUTO VRB02KT 04/00 A3009 RMK AO1 SLP213
     T00401001 52007





000
SAUS41 KCAR 211616
MTR40B
METAR K40B 211616Z AUTO VRB02KT 04/00 A3009 RMK AO1 SLP213
     T00401001 52007





000
SAUS41 KCAR 211557
MTRGNR
METAR KGNR 211556Z AUTO VRB04KT 05/00 A3007 RMK AO1 SLP196 T00500000





000
SAUS41 KCAR 211557
MTRGNR
METAR KGNR 211556Z AUTO VRB04KT 05/00 A3007 RMK AO1 SLP196 T00500000





000
SAUS41 KCAR 211516
MTR40B
METAR K40B 211516Z AUTO 00000KT 02/00 A3009 RMK AO1 SLP210
     T00161001 51009 P0000 60002





000
SAUS41 KCAR 211457
MTRGNR
METAR KGNR 211456Z AUTO 00000KT 04/00 A3005 RMK AO1 SLP189 T00440000
53013





000
SAUS41 KCAR 211416
MTR40B
METAR K40B 211416Z AUTO 00000KT 00/00 A3008 RMK AO1 SLP208
     T00041004 51014 P0001





000
SAUS41 KCAR 211357
MTRGNR
METAR KGNR 211356Z AUTO 18004KT 04/00 A3004 RMK AO1 SLP184 T00390000





000
SAUS41 KCAR 211316
MTR40B
METAR K40B 211316Z AUTO VRB02KT M01/M01 A3007 RMK AO1 SLP206
     T10061012 51018 P0001





000
SAUS41 KCAR 211257
MTRGNR
METAR KGNR 211256Z AUTO 00000KT 04/M01 A3002 RMK AO1 SLP180
T00391006





000
SAUS41 KCAR 211216
MTR40B
METAR K40B 211216Z AUTO 00000KT M01/M02 A3006 RMK AO1 SLP200
     T10141015 11010 21034 52017 70002





000
SAUS41 KCAR 211157
MTRGNR
METAR KGNR 211156Z AUTO 11004KT 03/M01 A3001 RMK AO1 SLP177
T00281006 10044 20022 53009





000
SAUS41 KCAR 211157
MTRGNR
METAR KGNR 211156Z AUTO 11004KT 03/M01 A3001 RMK AO1 SLP177
T00281006 10044 20022 53009





000
SAUS41 KCAR 211116
MTR40B
METAR K40B 211116Z AUTO 00000KT M03/M03 A3004 RMK AO1 SLP193
     T10301031 52014





000
SAUS41 KCAR 211116
MTR40B
METAR K40B 211116Z AUTO 00000KT M03/M03 A3004 RMK AO1 SLP193
     T10301031 52014





000
SAUS41 KCAR 211057
MTRGNR
METAR KGNR 211056Z AUTO VRB04KT 02/00 A3000 RMK AO1 SLP174 T00220000





000
SAUS41 KCAR 211057
MTRGNR
METAR KGNR 211056Z AUTO VRB04KT 02/00 A3000 RMK AO1 SLP174 T00220000





000
SAUS41 KCAR 211016
MTR40B
METAR K40B 211016Z AUTO 00000KT M03/M03 A3002 RMK AO1 SLP186
     T10311033 51017





000
SAUS41 KCAR 211016
MTR40B
METAR K40B 211016Z AUTO 00000KT M03/M03 A3002 RMK AO1 SLP186
     T10311033 51017





000
SAUS41 KCAR 210957
MTRGNR
METAR KGNR 210956Z AUTO 14003KT 03/00 A2999 RMK AO1 SLP169 T00280000





000
SAUS41 KCAR 210957
MTRGNR
METAR KGNR 210956Z AUTO 14003KT 03/00 A2999 RMK AO1 SLP169 T00280000





000
SAUS41 KCAR 210916
MTR40B
METAR K40B 210916Z AUTO VRB02KT M02/M03 A3000 RMK AO1 SLP181
     T10251027 53012





000
SAUS41 KCAR 210857
MTRGNR
METAR KGNR 210856Z AUTO 00000KT 03/00 A2998 RMK AO1 SLP166 T00330000
53009





000
SAUS41 KCAR 210816
MTR40B
METAR K40B 210816Z AUTO 00000KT M02/M03 A2999 RMK AO1 SLP176
     T10241027 53013





000
SAUS41 KCAR 210757
MTRGNR
METAR KGNR 210756Z AUTO 00000KT 04/00 A2996 RMK AO1 SLP158 T00390000





000
SAUS41 KCAR 210716
MTR40B
METAR K40B 210716Z AUTO 00000KT M01/M02 A2997 RMK AO1 SLP166
     T10141020 51008





000
SAUS41 KCAR 210657
MTRGNR
METAR KGNR 210656Z AUTO 36003KT 04/00 A2996 RMK AO1 SLP157 T00440000





000
SAUS41 KCAR 210616
MTR40B
METAR K40B 210616Z AUTO 00000KT M01/M02 A2997 RMK AO1 SLP166
     T10121017 10019 21020 53011 P0000 60002





000
SAUS41 KCAR 210557
MTRGNR
METAR KGNR 210556Z AUTO 01003KT 03/M01 A2995 RMK AO1 SLP156
T00331006 10050 20022 53009





000
SAUS41 KCAR 210516
MTR40B
METAR K40B 210516Z AUTO 00000KT M02/M02 A2995 RMK AO1 SLP160
     T10191023 400631019 52012





000
SAUS41 KCAR 210457
MTRGNR
METAR KGNR 210456Z AUTO 00000KT 04/M01 A2995 RMK AO1 SLP153
T00391011 400780000





000
SAUS41 KCAR 210416
MTR40B
METAR K40B 210416Z AUTO 00000KT M01/M03 A2994 RMK AO1 SLP155
     T10091025 52008





000
SAUS41 KCAR 210416
MTR40B
METAR K40B 210416Z AUTO 00000KT M01/M03 A2994 RMK AO1 SLP155
     T10091025 52008





000
SAUS41 KCAR 210357
MTRGNR
METAR KGNR 210356Z AUTO 00000KT 03/M02 A2993 RMK AO1 SLP151
T00331017





000
SAUS41 KCAR 210357
MTRGNR
METAR KGNR 210356Z AUTO 00000KT 03/M02 A2993 RMK AO1 SLP151
T00331017





000
SAUS41 KCAR 210316
MTR40B
METAR K40B 210316Z AUTO 00000KT 00/M02 A2993 RMK AO1 SLP152
     T00011021 52012 60002





000
SAUS41 KCAR 210257
MTRGNR
METAR KGNR 210256Z AUTO 00000KT 04/M03 A2993 RMK AO1 SLP147
T00391028 51010





000
SAUS41 KCAR 210216
MTR40B
METAR K40B 210216Z AUTO VRB03KT 02/M03 A2992 RMK AO1 SLP147
     T00181025 51011 P0002





000
SAUS41 KCAR 210216
MTR40B
METAR K40B 210216Z AUTO VRB03KT 02/M03 A2992 RMK AO1 SLP147
     T00181025 51011 P0002





000
SAUS41 KCAR 210157
MTRGNR
METAR KGNR 210156Z AUTO 00000KT 04/M04 A2992 RMK AO1 SLP146
T00441044





000
SAUS41 KCAR 210157
MTRGNR
METAR KGNR 210156Z AUTO 00000KT 04/M04 A2992 RMK AO1 SLP146
T00441044





000
SAUS41 KCAR 210116
MTR40B
METAR K40B 210116Z AUTO 00000KT 01/M03 A2992 RMK AO1 SLP146
     T00111026 52018





000
SAUS41 KCAR 210057
MTRGNR
METAR KGNR 210056Z AUTO 00000KT 04/M04 A2991 RMK AO1 SLP142
T00441044





000
SAUS41 KCAR 210016
MTR40B
METAR K40B 210016Z AUTO 00000KT M01/M03 A2990 RMK AO1 SLP140
     T10081027 10063 21009 52018 60000





000
SAUS41 KCAR 202357
MTRGNR
METAR KGNR 202356Z AUTO VRB03KT 04/M04 A2990 RMK AO1 SLP138
T00441039 10078 20033 51018





000
SAUS41 KCAR 202316
MTR40B
METAR K40B 202316Z AUTO 00000KT 00/M03 A2988 RMK AO1 SLP135
     T10031026 52020 P0000





000
SAUS41 KCAR 202257
MTRGNR
METAR KGNR 202256Z AUTO 00000KT 04/M04 A2988 RMK AO1 SLP132
T00441039





000
SAUS41 KCAR 202216
MTR40B
METAR K40B 202216Z AUTO VRB04KT 02/M04 A2986 RMK AO1 SLP127
     T00221035 53015





000
SAUS41 KCAR 202216
MTR40B
METAR K40B 202216Z AUTO VRB04KT 02/M04 A2986 RMK AO1 SLP127
     T00221035 53015





000
SAUS41 KCAR 202157
MTRGNR
METAR KGNR 202156Z AUTO 00000KT 04/M04 A2986 RMK AO1 SLP125
T00441044





000
SAUS41 KCAR 202157
MTRGNR
METAR KGNR 202156Z AUTO 00000KT 04/M04 A2986 RMK AO1 SLP125
T00441044





000
SAUS41 KCAR 202116
MTR40B
METAR K40B 202116Z AUTO VRB04KT 04/M04 A2984 RMK AO1 SLP122
     T00431035 53010





000
SAUS41 KCAR 202057
MTRGNR
METAR KGNR 202056Z AUTO VRB04KT 06/M05 A2984 RMK AO1 SLP119
T00561050 51006





000
SAUS41 KCAR 202016
MTR40B
METAR K40B 202016Z AUTO VRB04G14KT 05/M04 A2982 RMK AO1 SLP115
     T00541038 55001





000
SAUS41 KCAR 202000
MTRGNR
METAR KGNR 201956Z AUTO VRB04KT 07/M07 A2983 RMK AO1 SLP115
T00721067





000
SAUS41 KCAR 201916
MTR40B
METAR K40B 201916Z AUTO 25008G17KT 170V280 06/M05 A2982 RMK AO1
     SLP114 T00571048 56006





000
SAUS41 KCAR 201857
MTRGNR
METAR KGNR 201856Z AUTO 07/M06 A2983 RMK AO1 SLP115 T00671056





000
SAUS41 KCAR 201816
MTR40B
METAR K40B 201816Z AUTO VRB04G18KT 06/M04 A2981 RMK AO1 SLP113
     T00621035 10063 20005 57011





000
SAUS41 KCAR 201757
MTRGNR
METAR KGNR 201756Z AUTO VRB05KT 07/M05 A2982 RMK AO1 SLP112
T00671050 10067 20011 58009





000
SAUS41 KCAR 201716
MTR40B
METAR K40B 201716Z AUTO 23007G16KT 090V320 05/M04 A2982 RMK AO1
     SLP116 T00451039 58008





000
SAUS41 KCAR 201658
MTRGNR
METAR KGNR 201656Z AUTO VRB05KT 05/M04 A2983 RMK AO1 SLP116
T00501044





000
SAUS41 KCAR 201616
MTR40B
METAR K40B 201616Z AUTO 23006G18KT 140V300 04/M05 A2984 RMK AO1
     SLP121 T00381047 50001





000
SAUS41 KCAR 201558
MTRGNR
METAR KGNR 201556Z AUTO 31008G14KT 03/M04 A2985 RMK AO1 SLP123
T00331044





000
SAUS41 KCAR 201516
MTR40B
METAR K40B 201516Z AUTO VRB06G15KT 02/M03 A2984 RMK AO1 SLP124
     T00231031 51008





000
SAUS41 KCAR 201457
MTRGNR
METAR KGNR 201456Z AUTO 29007KT 160V350 03/M04 A2985 RMK AO1 SLP123
T00331039 50005





000
SAUS41 KCAR 201416
MTR40B
METAR K40B 201416Z AUTO VRB05G13KT 02/M03 A2984 RMK AO1 SLP124
     T00191031 51013





000
SAUS41 KCAR 201357
MTRGNR
METAR KGNR 201356Z AUTO VRB06KT 02/M04 A2986 RMK AO1 SLP127
T00221044





000
SAUS41 KCAR 201316
MTR40B
METAR K40B 201316Z AUTO 24007G14KT 160V310 01/M03 A2984 RMK AO1
     SLP122 T00131031 52015





000
SAUS41 KCAR 201258
MTRGNR
METAR KGNR 201256Z AUTO 31009G19KT 270V340 01/M04 A2984 RMK AO1
SLP121 T00111039





000
SAUS41 KCAR 201216
MTR40B
METAR K40B 201216Z AUTO VRB06G12KT 00/M03 A2982 RMK AO1 SLP117
     T00051031 10007 21006 52012 60000 70003





000
SAUS41 KCAR 201157
MTRGNR
METAR KGNR 201156Z AUTO VRB06KT 01/M04 A2984 RMK AO1 SLP119
T00111039 10011 20006 53015





000
SAUS41 KCAR 201116
MTR40B
METAR K40B 201116Z AUTO VRB05G13KT M01/M03 A2980 RMK AO1 SLP110
     T10061031 52009





000
SAUS41 KCAR 201057
MTRGNR
METAR KGNR 201056Z AUTO 31007KT 01/M04 A2981 RMK AO1 SLP109
T00111039





000
SAUS41 KCAR 201016
MTR40B
METAR K40B 201016Z AUTO VRB03G11KT 00/M03 A2979 RMK AO1 SLP106
     T00031029 52008 P0000





000
SAUS41 KCAR 201016
MTR40B
METAR K40B 201016Z AUTO VRB03G11KT 00/M03 A2979 RMK AO1 SLP106
     T00031029 52008 P0000





000
SAUS41 KCAR 200957
MTRGNR
METAR KGNR 200956Z AUTO VRB06KT 01/M04 A2980 RMK AO1 PK WND
32027/0908 SLP105 T00111039





000
SAUS41 KCAR 200957
MTRGNR
METAR KGNR 200956Z AUTO VRB06KT 01/M04 A2980 RMK AO1 PK WND
32027/0908 SLP105 T00111039





000
SAUS41 KCAR 200916
MTR40B
METAR K40B 200916Z AUTO VRB04KT 00/M02 A2979 RMK AO1 SLP103
     T00031021 52005





000
SAUS41 KCAR 200857
MTRGNR
METAR KGNR 200856Z AUTO 01/M04 A2979 RMK AO1 SLP102 T00111039 53006





000
SAUS41 KCAR 200816
MTR40B
METAR K40B 200816Z AUTO VRB03KT 00/M02 A2978 RMK AO1 SLP100
     T00021018 52003





000
SAUS41 KCAR 200757
MTRGNR
METAR KGNR 200756Z AUTO 31009G20KT 240V350 01/M04 A2977 RMK AO1
SLP097 T00111039





000
SAUS41 KCAR 200741
MTR40B
METAR K40B 200741Z AUTO VRB02KT 00/M01 A2977 RMK AO1 SLP096
     T00041008 52003





000
SAUS41 KCAR 200741
MTR40B
METAR K40B 200741Z AUTO VRB02KT 00/M01 A2977 RMK AO1 SLP096
     T00041008 52003





000
SAUS41 KCAR 200657
MTRGNR
METAR KGNR 200656Z AUTO 31010G21KT 260V340 01/M04 A2977 RMK AO1
SLP096 T00111039





000
SAUS41 KCAR 200616
MTR40B
METAR K40B 200616Z AUTO VRB03KT 01/00 A2977 RMK AO1 SLP096
     T00070001 10028 20006 52005 P0000 60001





000
SAUS41 KCAR 200557
MTRGNR
METAR KGNR 200556Z AUTO 29007KT 01/M04 A2977 RMK AO1 SLP096
T00061039 10028 20000 53011





000
SAUS41 KCAR 200539
MTR40B
METAR K40B 200539Z AUTO 00000KT 01/00 A2977 RMK AO1 SLP095
     T00100000 400650009 52003 P0001





000
SAUS41 KCAR 200457
MTRGNR
METAR KGNR 200456Z AUTO VRB04KT 01/M03 A2976 RMK AO1 SLP092
T00111033 401000011





000
SAUS41 KCAR 200357
MTRGNR
METAR KGNR 200356Z AUTO 30008G16KT 240V340 02/M02 A2974 RMK AO1
SLP086 T00221022





000
SAUS41 KCAR 200316
MTR40B
METAR K40B 200316Z AUTO VRB03KT 02/00 A2975 RMK AO1 SLP089
     T00180000 54001





000
SAUS41 KCAR 200257
MTRGNR
METAR KGNR 200256Z AUTO 30008G17KT 250V330 03/M01 A2974 RMK AO1
SLP084 T00281011 50002





000
SAUS41 KCAR 200216
MTR40B
METAR K40B 200216Z AUTO 00000KT 03/00 A2976 RMK AO1 SLP090
     T00250003 57003





000
SAUS41 KCAR 200157
MTRGNR
METAR KGNR 200156Z AUTO 31009G21KT 03/M02 A2974 RMK AO1 SLP084
T00281017





    US Dept of Commerce
    National Oceanic and Atmospheric Administration
    National Weather Service
    1325 East West Highway
    Silver Spring, MD 20910
    Page Author: NWS Internet Services Team
Disclaimer
Information Quality
Credits
Glossary
Privacy Policy
Freedom of Information Act (FOIA)
About Us
Career Opportunities